Weather reports worldwide

Advertisment
Paganella, Italy (16022): temperature & dewpoint: 30.06.2020 07:00:00 - 06.07.2020 07:00:00 (CEST)Paganella, Italy (16022): wind speed: 30.06.2020 07:00:00 - 06.07.2020 07:00:00 (CEST)Paganella, Italy (16022): wind direction: 30.06.2020 07:00:00 - 06.07.2020 07:00:00 (CEST)Paganella, Italy (16022): visibility: 30.06.2020 07:00:00 - 06.07.2020 07:00:00 (CEST)Paganella, Italy (16022): sunshine duration: 30.06.2020 07:00:00 - 06.07.2020 07:00:00 (CEST)
Date & Time tt [°C] td [°C] ff [km/h] ff [kn] dd vv [km] sd [min]
06.07.2020 07:00:00 13,4 8,0 5 3 N 50 36
06.07.2020 06:00:00 12,0 8,7 5 3 N 40 0
06.07.2020 05:00:00 12,0 8,3 9 5 N 40 -
06.07.2020 04:00:00 - - - - - - -
06.07.2020 03:00:00 13,6 8,4 5 3 N 60 -
06.07.2020 02:00:00 13,8 9,4 0 0 N 60 -
06.07.2020 01:00:00 13,8 9,0 0 0 N 60 -
06.07.2020 00:00:00 13,8 9,8 4 2 N 60 -
05.07.2020 23:00:00 14,0 9,7 4 2 N 50 -
05.07.2020 22:00:00 15,2 8,2 0 0 N 60 0
05.07.2020 21:00:00 16,4 9,6 9 5 SSW 60 30
05.07.2020 20:00:00 17,8 10,4 11 6 SW 60 60
05.07.2020 19:00:00 17,0 9,2 9 5 SSW 60 60
05.07.2020 18:00:00 17,0 7,9 9 5 SSW 60 60
05.07.2020 17:00:00 17,0 11,1 11 6 SSW 60 60
05.07.2020 16:00:00 16,8 9,7 15 8 SSW 60 60
05.07.2020 15:00:00 16,0 9,9 11 6 SSW 70 60
05.07.2020 14:00:00 14,2 8,8 4 2 N 70 60
05.07.2020 13:00:00 13,8 8,0 5 3 N 80 60
05.07.2020 12:00:00 13,8 4,9 0 0 N 80 60
05.07.2020 11:00:00 12,8 -2,7 11 6 N 80 60
05.07.2020 10:00:00 12,2 -2,0 16 9 N 75 60
05.07.2020 09:00:00 12,2 -2,0 18 10 N 75 60
05.07.2020 08:00:00 11,2 -0,9 15 8 N 75 60
05.07.2020 07:00:00 10,4 1,5 8 4 N 75 30
05.07.2020 06:00:00 9,0 3,0 11 6 N 75 0
05.07.2020 05:00:00 9,2 7,8 15 8 N 75 -
05.07.2020 04:00:00 9,4 7,4 13 7 N 75 -
05.07.2020 03:00:00 9,8 9,0 5 3 N 40 -
05.07.2020 02:00:00 10,0 8,4 8 4 N 40 -
05.07.2020 01:00:00 10,4 8,0 8 4 N 40 -
05.07.2020 00:00:00 10,8 7,5 9 5 N 50 -
04.07.2020 23:00:00 11,4 7,1 8 4 N 50 -
04.07.2020 22:00:00 13,0 6,6 0 0 N 60 0
04.07.2020 21:00:00 14,0 7,3 9 5 S 70 36
04.07.2020 20:00:00 9,8 4,2 0 0 N 70 60
04.07.2020 19:00:00 14,6 9,4 4 2 NNW 75 60
04.07.2020 18:00:00 14,2 9,2 5 3 N 80 60
04.07.2020 17:00:00 13,8 8,4 8 4 N 80 54
04.07.2020 16:00:00 13,4 8,0 9 5 N 75 24
04.07.2020 15:00:00 13,0 9,1 11 6 N 75 18
04.07.2020 14:00:00 12,8 9,4 5 3 ENE 75 30
04.07.2020 13:00:00 11,6 8,5 8 4 WSW 70 24
04.07.2020 12:00:00 10,2 7,1 0 0 N 75 42
04.07.2020 11:00:00 10,0 6,5 5 3 N 30 54
04.07.2020 10:00:00 9,0 5,7 0 0 N 30 60
04.07.2020 09:00:00 8,2 5,0 0 0 N 30 12
04.07.2020 08:00:00 7,2 5,2 0 0 N 40 0
04.07.2020 07:00:00 7,0 3,8 5 3 N 70 0
04.07.2020 06:00:00 7,2 4,0 8 4 N 70 0
04.07.2020 05:00:00 7,2 4,0 8 4 N 70 -
04.07.2020 04:00:00 7,0 3,8 11 6 NNE 70 -
04.07.2020 03:00:00 7,0 4,3 11 6 NNE 75 -
04.07.2020 02:00:00 7,0 6,0 15 8 N 75 -
04.07.2020 01:00:00 7,6 5,9 11 6 N 75 -
04.07.2020 00:00:00 7,0 4,0 13 7 N 75 -
03.07.2020 23:00:00 7,8 5,9 16 9 N 75 -
03.07.2020 22:00:00 8,8 5,9 15 8 N 75 0
03.07.2020 21:00:00 9,6 2,9 9 5 N 75 0
03.07.2020 20:00:00 10,0 7,4 0 0 N 0,9 0
03.07.2020 19:00:00 9,8 7,9 4 2 N 0,9 0
03.07.2020 18:00:00 11,0 8,6 4 2 N 0,3 0
03.07.2020 17:00:00 10,8 7,1 8 4 N 40 0
03.07.2020 16:00:00 10,6 6,2 0 0 N 40 0
03.07.2020 15:00:00 11,2 5,9 4 2 N 50 12
03.07.2020 14:00:00 11,8 8,3 11 6 N 60 36
03.07.2020 13:00:00 11,8 7,5 15 8 N 60 54
03.07.2020 12:00:00 11,0 7,7 18 10 N 60 60
03.07.2020 11:00:00 10,0 4,0 18 10 NNW 70 60
03.07.2020 10:00:00 9,2 4,8 22 12 NW 75 60
03.07.2020 09:00:00 8,4 4,8 0 0 N 70 60
03.07.2020 08:00:00 8,0 5,1 29 16 NNW 70 60
03.07.2020 07:00:00 7,0 5,0 34 18 NNW 60 12
03.07.2020 06:00:00 6,8 4,6 34 18 N 50 0
03.07.2020 05:00:00 5,8 4,4 34 18 N 0,8 -
03.07.2020 04:00:00 6,8 6,8 29 16 N - -
03.07.2020 03:00:00 6,6 6,6 26 14 N - -
03.07.2020 02:00:00 6,8 6,5 22 12 N - -
03.07.2020 01:00:00 9,8 8,2 4 2 N 0,6 -
03.07.2020 00:00:00 10,8 10,8 8 4 SSW - -
02.07.2020 23:00:00 10,8 10,5 11 6 S - -
02.07.2020 22:00:00 11,0 10,7 26 14 SW 0,3 0
02.07.2020 21:00:00 10,8 9,9 29 16 SW 0,6 0
02.07.2020 20:00:00 11,8 7,7 26 14 SW 30 0
02.07.2020 19:00:00 11,8 5,9 29 16 SW 30 0
02.07.2020 18:00:00 12,0 6,1 22 12 SW 50 0
02.07.2020 17:00:00 12,8 7,7 9 5 SSW 50 6
02.07.2020 16:00:00 15,4 9,3 11 6 SSW 50 54
02.07.2020 15:00:00 15,2 11,0 0 0 N 50 36
02.07.2020 14:00:00 14,0 10,0 8 4 S 50 0
02.07.2020 13:00:00 13,2 9,5 0 0 N 50 0
02.07.2020 12:00:00 13,0 8,7 0 0 N 50 0
02.07.2020 11:00:00 13,8 8,8 0 0 N 50 60
02.07.2020 10:00:00 13,0 6,1 0 0 N 50 60
02.07.2020 09:00:00 11,6 4,8 0 0 N 40 24
02.07.2020 08:00:00 10,4 3,7 0 0 N 40 0
02.07.2020 07:00:00 10,0 4,2 0 0 N 40 0
02.07.2020 06:00:00 9,6 7,5 0 0 N 30 0
02.07.2020 05:00:00 10,0 6,4 0 0 N 30 -
02.07.2020 04:00:00 10,2 3,9 0 0 N 50 -
02.07.2020 03:00:00 10,0 5,8 0 0 N 50 -
02.07.2020 02:00:00 10,2 6,5 0 0 N 30 -
02.07.2020 01:00:00 10,0 5,8 0 0 N 30 -
02.07.2020 00:00:00 10,0 5,0 8 4 N 30 -
01.07.2020 23:00:00 9,4 6,5 8 4 S 0,9 -
01.07.2020 22:00:00 11,2 10,7 11 6 S - 0
01.07.2020 21:00:00 11,2 10,0 15 8 SSW 0,3 0
01.07.2020 20:00:00 11,8 11,5 16 9 SSW - 0
01.07.2020 19:00:00 12,2 11,6 21 11 SSW 0,1 0
01.07.2020 18:00:00 13,0 11,1 18 10 SSW 0,6 12
01.07.2020 17:00:00 14,8 11,2 18 10 SSW 10 30
01.07.2020 16:00:00 14,6 10,6 15 8 S 20 18
01.07.2020 15:00:00 14,2 9,8 18 10 SSW 3,0 18
01.07.2020 14:00:00 11,0 6,9 21 11 SW 0,9 0
01.07.2020 13:00:00 11,4 9,8 15 8 S 0,7 0
01.07.2020 12:00:00 13,0 10,5 16 9 S 0,7 0
01.07.2020 11:00:00 13,4 10,8 13 7 S 0,7 0
01.07.2020 10:00:00 12,8 10,7 11 6 S 0,7 0
01.07.2020 09:00:00 11,4 10,8 11 6 S 0,4 0
01.07.2020 08:00:00 11,0 10,5 9 5 SSW 0,2 0
01.07.2020 07:00:00 10,6 10,0 9 5 S 0,8 0
01.07.2020 06:00:00 10,4 9,2 8 4 SSW 0,6 0
01.07.2020 05:00:00 10,4 9,6 8 4 S - -
01.07.2020 04:00:00 10,4 8,7 13 7 SSW - -
01.07.2020 03:00:00 10,6 9,8 11 6 SSW - -
01.07.2020 02:00:00 11,0 10,7 15 8 SSW - -
01.07.2020 01:00:00 11,0 11,0 21 11 SSW - -
01.07.2020 00:00:00 11,4 11,4 21 11 S - -
30.06.2020 23:00:00 11,4 11,4 26 14 SSW - -
30.06.2020 22:00:00 11,2 11,2 29 16 SW - 0
30.06.2020 21:00:00 11,8 11,5 22 12 SSW - 0
30.06.2020 20:00:00 13,0 11,7 26 14 SW - 0
30.06.2020 19:00:00 13,8 11,7 22 12 S 0,7 0
30.06.2020 18:00:00 13,4 12,0 26 14 SSW 0,7 0
30.06.2020 17:00:00 14,8 12,3 22 12 SW 20 48
30.06.2020 16:00:00 15,0 11,4 21 11 S 25 60
30.06.2020 15:00:00 15,0 12,0 22 12 SW 20 24
30.06.2020 14:00:00 14,0 11,7 15 8 SW 10 12
30.06.2020 13:00:00 12,4 11,0 13 7 SSW - 0
30.06.2020 12:00:00 12,4 11,9 15 8 S - 0
30.06.2020 11:00:00 12,0 12,0 18 10 S - 0
30.06.2020 10:00:00 11,0 11,0 13 7 S - 0
30.06.2020 09:00:00 10,8 10,8 13 7 SSW - 0
30.06.2020 08:00:00 10,4 10,4 15 8 SSW - 0
30.06.2020 07:00:00 10,2 10,2 18 10 SSW - 0

tt = temperature
td = dewpoint
ff = wind speed
dd = wind direction
vv = visibility
sd = sunshine duration

Next stations